Terminal Aerodrome Forecast
Issued by NWS

Home | Current Version | Previous Version | Graphics & Text | Print | Product List | Glossary On
Versions: 1 2 3 4 5 6 7 8 9 10 11 12 13 14 15 16 17 18 19 20 21
571
FTUS43 KBIS 210305 AAA
TAFDIK
TAF AMD
KDIK 210305Z 2103/2124 29007KT P6SM FEW080
     FM210400 30006KT 6SM BR FEW010
     FM210600 30007KT 3SM BR FEW008
     FM211700 30007KT P6SM OVC030
     FM212200 30009KT P6SM BKN035=

USA.gov is the U.S. government's official web portal to all federal, state and local government web resources and services.